sensor_id;sensor_type;location;lat;lon;timestamp;P1;durP1;ratioP1;P2;durP2;ratioP2
22628;SDS011;11481;53.694;9.910;2023-04-16T00:01:02;24.55;;;10.25;;
22628;SDS011;11481;53.694;9.910;2023-04-16T00:03:29;21.10;;;9.85;;
22628;SDS011;11481;53.694;9.910;2023-04-16T00:05:56;20.70;;;9.65;;
22628;SDS011;11481;53.694;9.910;2023-04-16T00:08:24;24.95;;;9.82;;
22628;SDS011;11481;53.694;9.910;2023-04-16T00:10:51;22.20;;;9.95;;
22628;SDS011;11481;53.694;9.910;2023-04-16T00:13:18;22.00;;;10.35;;
22628;SDS011;11481;53.694;9.910;2023-04-16T00:15:45;26.35;;;10.27;;
22628;SDS011;11481;53.694;9.910;2023-04-16T00:18:12;20.85;;;9.52;;
22628;SDS011;11481;53.694;9.910;2023-04-16T00:20:39;22.13;;;10.13;;
22628;SDS011;11481;53.694;9.910;2023-04-16T00:23:05;25.88;;;11.05;;
22628;SDS011;11481;53.694;9.910;2023-04-16T00:25:32;23.42;;;10.02;;
22628;SDS011;11481;53.694;9.910;2023-04-16T00:27:59;26.67;;;10.90;;
22628;SDS011;11481;53.694;9.910;2023-04-16T00:30:25;22.55;;;10.85;;
22628;SDS011;11481;53.694;9.910;2023-04-16T00:32:52;21.58;;;9.98;;
22628;SDS011;11481;53.694;9.910;2023-04-16T00:35:19;24.23;;;9.98;;
22628;SDS011;11481;53.694;9.910;2023-04-16T00:37:46;22.70;;;10.98;;
22628;SDS011;11481;53.694;9.910;2023-04-16T00:40:13;20.52;;;10.05;;
22628;SDS011;11481;53.694;9.910;2023-04-16T00:42:40;20.05;;;10.55;;
22628;SDS011;11481;53.694;9.910;2023-04-16T00:45:07;24.00;;;10.45;;
22628;SDS011;11481;53.694;9.910;2023-04-16T00:47:34;22.15;;;9.73;;
22628;SDS011;11481;53.694;9.910;2023-04-16T00:50:02;23.50;;;10.30;;
22628;SDS011;11481;53.694;9.910;2023-04-16T00:52:33;20.83;;;10.23;;
22628;SDS011;11481;53.694;9.910;2023-04-16T00:55:00;21.70;;;10.70;;
22628;SDS011;11481;53.694;9.910;2023-04-16T00:57:27;23.70;;;9.80;;
22628;SDS011;11481;53.694;9.910;2023-04-16T00:59:55;22.55;;;9.57;;
22628;SDS011;11481;53.694;9.910;2023-04-16T01:02:23;25.63;;;10.55;;
22628;SDS011;11481;53.694;9.910;2023-04-16T01:04:50;23.23;;;9.98;;
22628;SDS011;11481;53.694;9.910;2023-04-16T01:07:17;20.23;;;8.80;;
22628;SDS011;11481;53.694;9.910;2023-04-16T01:09:44;25.95;;;10.55;;
22628;SDS011;11481;53.694;9.910;2023-04-16T01:12:11;20.05;;;10.23;;
22628;SDS011;11481;53.694;9.910;2023-04-16T01:14:38;20.98;;;10.70;;
22628;SDS011;11481;53.694;9.910;2023-04-16T01:17:04;22.48;;;10.32;;
22628;SDS011;11481;53.694;9.910;2023-04-16T01:19:31;23.63;;;10.57;;
22628;SDS011;11481;53.694;9.910;2023-04-16T01:22:02;22.85;;;10.45;;
22628;SDS011;11481;53.694;9.910;2023-04-16T01:24:29;21.92;;;9.88;;
22628;SDS011;11481;53.694;9.910;2023-04-16T01:26:57;20.10;;;9.57;;
22628;SDS011;11481;53.694;9.910;2023-04-16T01:29:25;24.55;;;10.43;;
22628;SDS011;11481;53.694;9.910;2023-04-16T01:31:52;22.15;;;9.43;;
22628;SDS011;11481;53.694;9.910;2023-04-16T01:34:19;24.23;;;9.93;;
22628;SDS011;11481;53.694;9.910;2023-04-16T01:36:46;21.67;;;9.77;;
22628;SDS011;11481;53.694;9.910;2023-04-16T01:39:13;25.58;;;10.10;;
22628;SDS011;11481;53.694;9.910;2023-04-16T01:41:41;21.00;;;9.85;;
22628;SDS011;11481;53.694;9.910;2023-04-16T01:44:08;22.98;;;9.98;;
22628;SDS011;11481;53.694;9.910;2023-04-16T01:46:35;21.88;;;9.80;;
22628;SDS011;11481;53.694;9.910;2023-04-16T01:49:03;21.63;;;10.18;;
22628;SDS011;11481;53.694;9.910;2023-04-16T01:51:31;23.27;;;10.95;;
22628;SDS011;11481;53.694;9.910;2023-04-16T01:54:01;19.33;;;9.70;;
22628;SDS011;11481;53.694;9.910;2023-04-16T01:56:28;30.38;;;10.60;;
22628;SDS011;11481;53.694;9.910;2023-04-16T01:58:54;24.25;;;10.60;;
22628;SDS011;11481;53.694;9.910;2023-04-16T02:01:21;23.10;;;10.80;;
22628;SDS011;11481;53.694;9.910;2023-04-16T02:03:50;22.80;;;10.43;;
22628;SDS011;11481;53.694;9.910;2023-04-16T02:06:17;25.73;;;11.30;;
22628;SDS011;11481;53.694;9.910;2023-04-16T02:08:44;24.77;;;11.65;;
22628;SDS011;11481;53.694;9.910;2023-04-16T02:11:11;21.45;;;10.75;;
22628;SDS011;11481;53.694;9.910;2023-04-16T02:13:38;27.20;;;11.88;;
22628;SDS011;11481;53.694;9.910;2023-04-16T02:16:05;25.42;;;10.75;;
22628;SDS011;11481;53.694;9.910;2023-04-16T02:18:32;22.40;;;9.82;;
22628;SDS011;11481;53.694;9.910;2023-04-16T02:20:58;21.67;;;10.65;;
22628;SDS011;11481;53.694;9.910;2023-04-16T02:23:25;20.00;;;10.82;;
22628;SDS011;11481;53.694;9.910;2023-04-16T02:25:53;23.90;;;11.07;;
22628;SDS011;11481;53.694;9.910;2023-04-16T02:28:20;24.75;;;11.93;;
22628;SDS011;11481;53.694;9.910;2023-04-16T02:30:46;27.75;;;11.55;;
22628;SDS011;11481;53.694;9.910;2023-04-16T02:33:13;25.48;;;11.95;;
22628;SDS011;11481;53.694;9.910;2023-04-16T02:35:40;24.05;;;11.35;;
22628;SDS011;11481;53.694;9.910;2023-04-16T02:38:07;25.52;;;11.60;;
22628;SDS011;11481;53.694;9.910;2023-04-16T02:40:34;23.60;;;11.27;;
22628;SDS011;11481;53.694;9.910;2023-04-16T02:43:01;24.90;;;11.07;;
22628;SDS011;11481;53.694;9.910;2023-04-16T02:45:28;21.92;;;10.15;;
22628;SDS011;11481;53.694;9.910;2023-04-16T02:47:57;20.98;;;10.48;;
22628;SDS011;11481;53.694;9.910;2023-04-16T02:50:24;21.35;;;10.65;;
22628;SDS011;11481;53.694;9.910;2023-04-16T02:52:51;26.48;;;11.73;;
22628;SDS011;11481;53.694;9.910;2023-04-16T02:55:18;22.13;;;11.10;;
22628;SDS011;11481;53.694;9.910;2023-04-16T02:57:44;20.33;;;9.40;;
22628;SDS011;11481;53.694;9.910;2023-04-16T03:00:11;27.23;;;10.60;;
22628;SDS011;11481;53.694;9.910;2023-04-16T03:02:38;22.20;;;10.18;;
22628;SDS011;11481;53.694;9.910;2023-04-16T03:05:05;24.55;;;10.43;;
22628;SDS011;11481;53.694;9.910;2023-04-16T03:07:32;26.10;;;10.90;;
22628;SDS011;11481;53.694;9.910;2023-04-16T03:09:59;23.65;;;10.85;;
22628;SDS011;11481;53.694;9.910;2023-04-16T03:12:26;23.50;;;10.30;;
22628;SDS011;11481;53.694;9.910;2023-04-16T03:14:53;22.48;;;11.20;;
22628;SDS011;11481;53.694;9.910;2023-04-16T03:17:19;23.23;;;11.15;;
22628;SDS011;11481;53.694;9.910;2023-04-16T03:19:46;19.90;;;9.50;;
22628;SDS011;11481;53.694;9.910;2023-04-16T03:22:13;24.10;;;10.77;;
22628;SDS011;11481;53.694;9.910;2023-04-16T03:24:39;20.63;;;10.00;;
22628;SDS011;11481;53.694;9.910;2023-04-16T03:27:06;20.52;;;10.48;;
22628;SDS011;11481;53.694;9.910;2023-04-16T03:29:35;21.73;;;10.75;;
22628;SDS011;11481;53.694;9.910;2023-04-16T03:32:03;21.50;;;10.10;;
22628;SDS011;11481;53.694;9.910;2023-04-16T03:34:30;21.17;;;9.95;;
22628;SDS011;11481;53.694;9.910;2023-04-16T03:36:57;23.13;;;10.75;;
22628;SDS011;11481;53.694;9.910;2023-04-16T03:39:24;22.20;;;9.82;;
22628;SDS011;11481;53.694;9.910;2023-04-16T03:41:50;23.13;;;10.13;;
22628;SDS011;11481;53.694;9.910;2023-04-16T03:44:17;21.80;;;10.65;;
22628;SDS011;11481;53.694;9.910;2023-04-16T03:46:44;20.65;;;10.73;;
22628;SDS011;11481;53.694;9.910;2023-04-16T03:49:11;20.30;;;10.60;;
22628;SDS011;11481;53.694;9.910;2023-04-16T03:51:37;21.92;;;11.15;;
22628;SDS011;11481;53.694;9.910;2023-04-16T03:54:04;23.48;;;9.95;;
22628;SDS011;11481;53.694;9.910;2023-04-16T03:56:31;21.48;;;10.20;;
22628;SDS011;11481;53.694;9.910;2023-04-16T03:58:57;28.88;;;11.27;;
22628;SDS011;11481;53.694;9.910;2023-04-16T04:01:24;22.98;;;10.32;;
22628;SDS011;11481;53.694;9.910;2023-04-16T04:03:51;23.13;;;9.90;;
22628;SDS011;11481;53.694;9.910;2023-04-16T04:06:18;21.52;;;10.00;;
22628;SDS011;11481;53.694;9.910;2023-04-16T04:08:44;21.27;;;10.10;;
22628;SDS011;11481;53.694;9.910;2023-04-16T04:11:11;22.75;;;10.65;;
22628;SDS011;11481;53.694;9.910;2023-04-16T04:13:39;23.08;;;10.43;;
22628;SDS011;11481;53.694;9.910;2023-04-16T04:16:06;21.30;;;10.57;;
22628;SDS011;11481;53.694;9.910;2023-04-16T04:18:33;22.25;;;9.73;;
22628;SDS011;11481;53.694;9.910;2023-04-16T04:21:03;20.08;;;9.27;;
22628;SDS011;11481;53.694;9.910;2023-04-16T04:23:34;24.85;;;11.30;;
22628;SDS011;11481;53.694;9.910;2023-04-16T04:26:01;21.98;;;10.00;;
22628;SDS011;11481;53.694;9.910;2023-04-16T04:28:30;21.30;;;9.80;;
22628;SDS011;11481;53.694;9.910;2023-04-16T04:30:58;23.83;;;11.23;;
22628;SDS011;11481;53.694;9.910;2023-04-16T04:33:25;25.90;;;11.00;;
22628;SDS011;11481;53.694;9.910;2023-04-16T04:35:52;25.55;;;11.20;;
22628;SDS011;11481;53.694;9.910;2023-04-16T04:38:19;22.63;;;9.75;;
22628;SDS011;11481;53.694;9.910;2023-04-16T04:40:50;24.17;;;10.90;;
22628;SDS011;11481;53.694;9.910;2023-04-16T04:43:18;26.67;;;9.70;;
22628;SDS011;11481;53.694;9.910;2023-04-16T04:45:45;27.70;;;10.48;;
22628;SDS011;11481;53.694;9.910;2023-04-16T04:48:12;23.33;;;10.30;;
22628;SDS011;11481;53.694;9.910;2023-04-16T04:50:39;25.10;;;11.60;;
22628;SDS011;11481;53.694;9.910;2023-04-16T04:53:07;22.88;;;10.45;;
22628;SDS011;11481;53.694;9.910;2023-04-16T04:55:40;26.02;;;11.38;;
22628;SDS011;11481;53.694;9.910;2023-04-16T04:58:07;25.15;;;11.55;;
22628;SDS011;11481;53.694;9.910;2023-04-16T05:00:34;22.92;;;11.23;;
22628;SDS011;11481;53.694;9.910;2023-04-16T05:03:02;25.20;;;10.85;;
22628;SDS011;11481;53.694;9.910;2023-04-16T05:05:30;25.10;;;10.57;;
22628;SDS011;11481;53.694;9.910;2023-04-16T05:07:58;22.33;;;10.75;;
22628;SDS011;11481;53.694;9.910;2023-04-16T05:10:25;24.25;;;11.00;;
22628;SDS011;11481;53.694;9.910;2023-04-16T05:12:53;26.02;;;10.68;;
22628;SDS011;11481;53.694;9.910;2023-04-16T05:15:19;22.05;;;10.73;;
22628;SDS011;11481;53.694;9.910;2023-04-16T05:17:46;20.15;;;10.02;;
22628;SDS011;11481;53.694;9.910;2023-04-16T05:20:13;27.27;;;11.55;;
22628;SDS011;11481;53.694;9.910;2023-04-16T05:22:40;25.38;;;11.50;;
22628;SDS011;11481;53.694;9.910;2023-04-16T05:25:07;23.63;;;10.90;;
22628;SDS011;11481;53.694;9.910;2023-04-16T05:27:35;27.10;;;11.50;;
22628;SDS011;11481;53.694;9.910;2023-04-16T05:30:02;24.50;;;10.10;;
22628;SDS011;11481;53.694;9.910;2023-04-16T05:32:29;23.70;;;9.90;;
22628;SDS011;11481;53.694;9.910;2023-04-16T05:34:56;24.55;;;11.38;;
22628;SDS011;11481;53.694;9.910;2023-04-16T05:37:24;22.70;;;10.57;;
22628;SDS011;11481;53.694;9.910;2023-04-16T05:39:51;29.77;;;12.52;;
22628;SDS011;11481;53.694;9.910;2023-04-16T05:42:18;22.65;;;10.98;;
22628;SDS011;11481;53.694;9.910;2023-04-16T05:44:45;28.88;;;10.15;;
22628;SDS011;11481;53.694;9.910;2023-04-16T05:47:12;23.58;;;11.23;;
22628;SDS011;11481;53.694;9.910;2023-04-16T05:49:39;24.58;;;10.98;;
22628;SDS011;11481;53.694;9.910;2023-04-16T05:52:05;22.45;;;10.13;;
22628;SDS011;11481;53.694;9.910;2023-04-16T05:54:32;26.75;;;11.18;;
22628;SDS011;11481;53.694;9.910;2023-04-16T05:56:59;26.58;;;11.13;;
22628;SDS011;11481;53.694;9.910;2023-04-16T05:59:27;23.13;;;11.30;;
22628;SDS011;11481;53.694;9.910;2023-04-16T06:01:54;22.30;;;10.77;;
22628;SDS011;11481;53.694;9.910;2023-04-16T06:04:21;29.52;;;11.75;;
22628;SDS011;11481;53.694;9.910;2023-04-16T06:06:48;23.90;;;10.90;;
22628;SDS011;11481;53.694;9.910;2023-04-16T06:09:14;25.52;;;9.98;;
22628;SDS011;11481;53.694;9.910;2023-04-16T06:11:41;22.05;;;10.52;;
22628;SDS011;11481;53.694;9.910;2023-04-16T06:14:07;24.27;;;10.15;;
22628;SDS011;11481;53.694;9.910;2023-04-16T06:16:34;25.80;;;10.65;;
22628;SDS011;11481;53.694;9.910;2023-04-16T06:19:00;24.50;;;11.25;;
22628;SDS011;11481;53.694;9.910;2023-04-16T06:21:27;23.10;;;10.93;;
22628;SDS011;11481;53.694;9.910;2023-04-16T06:23:54;26.38;;;11.52;;
22628;SDS011;11481;53.694;9.910;2023-04-16T06:26:21;21.75;;;10.63;;
22628;SDS011;11481;53.694;9.910;2023-04-16T06:28:48;25.92;;;9.93;;
22628;SDS011;11481;53.694;9.910;2023-04-16T06:31:15;25.58;;;11.27;;
22628;SDS011;11481;53.694;9.910;2023-04-16T06:33:42;24.42;;;11.20;;
22628;SDS011;11481;53.694;9.910;2023-04-16T06:36:08;25.48;;;10.05;;
22628;SDS011;11481;53.694;9.910;2023-04-16T06:38:36;22.35;;;10.18;;
22628;SDS011;11481;53.694;9.910;2023-04-16T06:41:04;20.42;;;10.40;;
22628;SDS011;11481;53.694;9.910;2023-04-16T06:43:31;20.08;;;9.30;;
22628;SDS011;11481;53.694;9.910;2023-04-16T06:45:58;20.58;;;9.73;;
22628;SDS011;11481;53.694;9.910;2023-04-16T06:48:25;21.58;;;9.73;;
22628;SDS011;11481;53.694;9.910;2023-04-16T06:50:53;23.90;;;9.98;;
22628;SDS011;11481;53.694;9.910;2023-04-16T06:53:20;21.58;;;9.80;;
22628;SDS011;11481;53.694;9.910;2023-04-16T06:55:48;23.17;;;9.73;;
22628;SDS011;11481;53.694;9.910;2023-04-16T06:58:15;23.58;;;10.50;;
22628;SDS011;11481;53.694;9.910;2023-04-16T07:00:41;21.40;;;9.70;;
22628;SDS011;11481;53.694;9.910;2023-04-16T07:03:08;25.77;;;10.68;;
22628;SDS011;11481;53.694;9.910;2023-04-16T07:05:35;21.55;;;9.50;;
22628;SDS011;11481;53.694;9.910;2023-04-16T07:08:02;22.55;;;9.65;;
22628;SDS011;11481;53.694;9.910;2023-04-16T07:10:31;21.33;;;9.68;;
22628;SDS011;11481;53.694;9.910;2023-04-16T07:12:57;24.80;;;10.00;;
22628;SDS011;11481;53.694;9.910;2023-04-16T07:15:27;18.58;;;9.57;;
22628;SDS011;11481;53.694;9.910;2023-04-16T07:17:54;23.50;;;10.52;;
22628;SDS011;11481;53.694;9.910;2023-04-16T07:20:21;21.70;;;9.90;;
22628;SDS011;11481;53.694;9.910;2023-04-16T07:22:48;19.02;;;9.23;;
22628;SDS011;11481;53.694;9.910;2023-04-16T07:25:15;21.88;;;9.43;;
22628;SDS011;11481;53.694;9.910;2023-04-16T07:27:42;21.23;;;10.07;;
22628;SDS011;11481;53.694;9.910;2023-04-16T07:30:09;19.63;;;9.43;;
22628;SDS011;11481;53.694;9.910;2023-04-16T07:32:36;18.55;;;9.00;;
22628;SDS011;11481;53.694;9.910;2023-04-16T07:35:03;19.17;;;8.98;;
22628;SDS011;11481;53.694;9.910;2023-04-16T07:37:30;20.17;;;10.30;;
22628;SDS011;11481;53.694;9.910;2023-04-16T07:39:57;19.13;;;8.85;;
22628;SDS011;11481;53.694;9.910;2023-04-16T07:42:26;22.65;;;10.07;;
22628;SDS011;11481;53.694;9.910;2023-04-16T07:44:53;19.63;;;8.88;;
22628;SDS011;11481;53.694;9.910;2023-04-16T07:47:20;19.98;;;8.77;;
22628;SDS011;11481;53.694;9.910;2023-04-16T07:49:48;17.15;;;8.43;;
22628;SDS011;11481;53.694;9.910;2023-04-16T07:52:18;19.17;;;8.82;;
22628;SDS011;11481;53.694;9.910;2023-04-16T07:54:45;19.48;;;8.75;;
22628;SDS011;11481;53.694;9.910;2023-04-16T07:57:12;19.85;;;8.85;;
22628;SDS011;11481;53.694;9.910;2023-04-16T07:59:38;20.30;;;8.73;;
22628;SDS011;11481;53.694;9.910;2023-04-16T08:02:05;20.17;;;8.32;;
22628;SDS011;11481;53.694;9.910;2023-04-16T08:04:38;19.10;;;8.80;;
22628;SDS011;11481;53.694;9.910;2023-04-16T08:07:06;20.27;;;8.52;;
22628;SDS011;11481;53.694;9.910;2023-04-16T08:09:33;17.23;;;8.75;;
22628;SDS011;11481;53.694;9.910;2023-04-16T08:12:01;19.55;;;8.48;;
22628;SDS011;11481;53.694;9.910;2023-04-16T08:14:28;19.48;;;8.07;;
22628;SDS011;11481;53.694;9.910;2023-04-16T08:16:55;20.48;;;9.20;;
22628;SDS011;11481;53.694;9.910;2023-04-16T08:19:22;20.30;;;9.05;;
22628;SDS011;11481;53.694;9.910;2023-04-16T08:21:49;20.05;;;9.85;;
22628;SDS011;11481;53.694;9.910;2023-04-16T08:24:15;20.33;;;8.35;;
22628;SDS011;11481;53.694;9.910;2023-04-16T08:26:42;23.33;;;9.45;;
22628;SDS011;11481;53.694;9.910;2023-04-16T08:29:09;20.63;;;9.35;;
22628;SDS011;11481;53.694;9.910;2023-04-16T08:31:36;22.67;;;10.02;;
22628;SDS011;11481;53.694;9.910;2023-04-16T08:34:03;16.10;;;8.10;;
22628;SDS011;11481;53.694;9.910;2023-04-16T08:36:29;17.55;;;8.68;;
22628;SDS011;11481;53.694;9.910;2023-04-16T08:38:56;21.75;;;10.32;;
22628;SDS011;11481;53.694;9.910;2023-04-16T08:41:23;18.55;;;7.90;;
22628;SDS011;11481;53.694;9.910;2023-04-16T08:43:51;16.10;;;7.95;;
22628;SDS011;11481;53.694;9.910;2023-04-16T08:46:20;20.60;;;8.40;;
22628;SDS011;11481;53.694;9.910;2023-04-16T08:48:50;21.48;;;8.57;;
22628;SDS011;11481;53.694;9.910;2023-04-16T08:51:21;19.00;;;8.88;;
22628;SDS011;11481;53.694;9.910;2023-04-16T08:53:52;21.33;;;8.95;;
22628;SDS011;11481;53.694;9.910;2023-04-16T08:56:22;22.63;;;9.00;;
22628;SDS011;11481;53.694;9.910;2023-04-16T08:58:50;19.27;;;8.32;;
22628;SDS011;11481;53.694;9.910;2023-04-16T09:01:20;16.35;;;8.25;;
22628;SDS011;11481;53.694;9.910;2023-04-16T09:03:47;20.60;;;9.43;;
22628;SDS011;11481;53.694;9.910;2023-04-16T09:06:15;19.75;;;8.85;;
22628;SDS011;11481;53.694;9.910;2023-04-16T09:08:44;18.08;;;8.75;;
22628;SDS011;11481;53.694;9.910;2023-04-16T09:11:16;17.90;;;7.38;;
22628;SDS011;11481;53.694;9.910;2023-04-16T09:13:43;18.67;;;8.15;;
22628;SDS011;11481;53.694;9.910;2023-04-16T09:16:11;17.20;;;8.25;;
22628;SDS011;11481;53.694;9.910;2023-04-16T09:18:39;16.92;;;8.35;;
22628;SDS011;11481;53.694;9.910;2023-04-16T09:21:08;16.92;;;8.00;;
22628;SDS011;11481;53.694;9.910;2023-04-16T09:23:37;23.67;;;8.25;;
22628;SDS011;11481;53.694;9.910;2023-04-16T09:26:05;18.13;;;8.80;;
22628;SDS011;11481;53.694;9.910;2023-04-16T09:28:38;17.67;;;7.47;;
22628;SDS011;11481;53.694;9.910;2023-04-16T09:31:06;20.90;;;8.30;;
22628;SDS011;11481;53.694;9.910;2023-04-16T09:33:34;18.27;;;8.45;;
22628;SDS011;11481;53.694;9.910;2023-04-16T09:36:00;17.85;;;7.90;;
22628;SDS011;11481;53.694;9.910;2023-04-16T09:38:44;17.02;;;8.98;;
22628;SDS011;11481;53.694;9.910;2023-04-16T09:41:17;18.75;;;8.73;;
22628;SDS011;11481;53.694;9.910;2023-04-16T09:43:57;19.50;;;8.52;;
22628;SDS011;11481;53.694;9.910;2023-04-16T09:46:32;19.23;;;8.93;;
22628;SDS011;11481;53.694;9.910;2023-04-16T09:49:18;18.60;;;8.32;;
22628;SDS011;11481;53.694;9.910;2023-04-16T09:51:46;15.50;;;8.15;;
22628;SDS011;11481;53.694;9.910;2023-04-16T09:54:14;22.58;;;9.10;;
22628;SDS011;11481;53.694;9.910;2023-04-16T09:56:42;18.92;;;8.23;;
22628;SDS011;11481;53.694;9.910;2023-04-16T09:59:17;18.27;;;8.77;;
22628;SDS011;11481;53.694;9.910;2023-04-16T10:01:44;19.75;;;7.85;;
22628;SDS011;11481;53.694;9.910;2023-04-16T10:04:44;16.73;;;8.32;;
22628;SDS011;11481;53.694;9.910;2023-04-16T10:07:17;15.13;;;8.05;;
22628;SDS011;11481;53.694;9.910;2023-04-16T10:09:48;18.33;;;8.15;;
22628;SDS011;11481;53.694;9.910;2023-04-16T10:12:15;18.98;;;8.90;;
22628;SDS011;11481;53.694;9.910;2023-04-16T10:14:42;17.30;;;7.65;;
22628;SDS011;11481;53.694;9.910;2023-04-16T10:17:12;16.75;;;8.18;;
22628;SDS011;11481;53.694;9.910;2023-04-16T10:19:40;16.50;;;8.20;;
22628;SDS011;11481;53.694;9.910;2023-04-16T10:22:07;14.45;;;7.85;;
22628;SDS011;11481;53.694;9.910;2023-04-16T10:24:34;18.75;;;8.05;;
22628;SDS011;11481;53.694;9.910;2023-04-16T10:27:01;18.20;;;8.55;;
22628;SDS011;11481;53.694;9.910;2023-04-16T10:29:28;17.40;;;8.52;;
22628;SDS011;11481;53.694;9.910;2023-04-16T10:31:58;16.65;;;8.18;;
22628;SDS011;11481;53.694;9.910;2023-04-16T10:34:26;15.10;;;7.93;;
22628;SDS011;11481;53.694;9.910;2023-04-16T10:36:54;18.33;;;9.18;;
22628;SDS011;11481;53.694;9.910;2023-04-16T10:39:21;15.25;;;7.70;;
22628;SDS011;11481;53.694;9.910;2023-04-16T10:41:49;16.42;;;8.15;;
22628;SDS011;11481;53.694;9.910;2023-04-16T10:44:31;17.20;;;8.05;;
22628;SDS011;11481;53.694;9.910;2023-04-16T10:46:58;19.92;;;8.98;;
22628;SDS011;11481;53.694;9.910;2023-04-16T10:49:25;16.13;;;8.57;;
22628;SDS011;11481;53.694;9.910;2023-04-16T10:56:55;20.73;;;8.05;;
22628;SDS011;11481;53.694;9.910;2023-04-16T10:59:30;19.27;;;8.85;;
22628;SDS011;11481;53.694;9.910;2023-04-16T11:02:08;20.15;;;9.25;;
22628;SDS011;11481;53.694;9.910;2023-04-16T11:04:39;19.92;;;8.63;;
22628;SDS011;11481;53.694;9.910;2023-04-16T11:12:16;19.60;;;8.68;;
22628;SDS011;11481;53.694;9.910;2023-04-16T11:14:48;18.90;;;8.93;;
22628;SDS011;11481;53.694;9.910;2023-04-16T11:17:17;17.90;;;8.98;;
22628;SDS011;11481;53.694;9.910;2023-04-16T11:19:45;18.45;;;9.10;;
22628;SDS011;11481;53.694;9.910;2023-04-16T11:22:12;18.45;;;8.15;;
22628;SDS011;11481;53.694;9.910;2023-04-16T11:24:43;20.60;;;9.73;;
22628;SDS011;11481;53.694;9.910;2023-04-16T11:27:13;20.88;;;9.32;;
22628;SDS011;11481;53.694;9.910;2023-04-16T11:29:41;18.42;;;9.85;;
22628;SDS011;11481;53.694;9.910;2023-04-16T11:32:19;20.67;;;10.45;;
22628;SDS011;11481;53.694;9.910;2023-04-16T11:34:47;17.73;;;8.85;;
22628;SDS011;11481;53.694;9.910;2023-04-16T11:37:13;17.67;;;9.00;;
22628;SDS011;11481;53.694;9.910;2023-04-16T11:39:50;19.08;;;9.40;;
22628;SDS011;11481;53.694;9.910;2023-04-16T11:42:18;17.67;;;9.55;;
22628;SDS011;11481;53.694;9.910;2023-04-16T11:44:54;20.08;;;9.63;;
22628;SDS011;11481;53.694;9.910;2023-04-16T11:47:23;20.23;;;9.75;;
22628;SDS011;11481;53.694;9.910;2023-04-16T11:49:50;25.63;;;9.85;;
22628;SDS011;11481;53.694;9.910;2023-04-16T11:54:53;18.85;;;9.02;;
22628;SDS011;11481;53.694;9.910;2023-04-16T11:57:26;20.63;;;9.32;;
22628;SDS011;11481;53.694;9.910;2023-04-16T11:59:54;22.80;;;9.10;;
22628;SDS011;11481;53.694;9.910;2023-04-16T12:08:02;20.92;;;10.48;;
22628;SDS011;11481;53.694;9.910;2023-04-16T12:10:34;27.83;;;10.13;;
22628;SDS011;11481;53.694;9.910;2023-04-16T12:13:10;24.02;;;10.13;;
22628;SDS011;11481;53.694;9.910;2023-04-16T12:15:46;22.42;;;10.57;;
22628;SDS011;11481;53.694;9.910;2023-04-16T12:18:13;21.67;;;9.82;;
22628;SDS011;11481;53.694;9.910;2023-04-16T12:20:41;23.92;;;10.73;;
22628;SDS011;11481;53.694;9.910;2023-04-16T12:23:09;19.73;;;9.45;;
22628;SDS011;11481;53.694;9.910;2023-04-16T12:25:47;22.15;;;10.55;;
22628;SDS011;11481;53.694;9.910;2023-04-16T12:28:33;18.25;;;10.05;;
22628;SDS011;11481;53.694;9.910;2023-04-16T12:31:01;18.52;;;8.95;;
22628;SDS011;11481;53.694;9.910;2023-04-16T12:33:29;19.55;;;9.23;;
22628;SDS011;11481;53.694;9.910;2023-04-16T12:35:56;20.50;;;9.30;;
22628;SDS011;11481;53.694;9.910;2023-04-16T12:38:23;21.83;;;9.40;;
22628;SDS011;11481;53.694;9.910;2023-04-16T12:40:51;18.13;;;8.90;;
22628;SDS011;11481;53.694;9.910;2023-04-16T12:43:21;20.38;;;8.98;;
22628;SDS011;11481;53.694;9.910;2023-04-16T12:45:48;19.90;;;10.30;;
22628;SDS011;11481;53.694;9.910;2023-04-16T12:48:15;23.08;;;9.65;;
22628;SDS011;11481;53.694;9.910;2023-04-16T12:50:41;20.52;;;10.10;;
22628;SDS011;11481;53.694;9.910;2023-04-16T12:53:09;19.95;;;10.25;;
22628;SDS011;11481;53.694;9.910;2023-04-16T12:55:38;19.00;;;9.90;;
22628;SDS011;11481;53.694;9.910;2023-04-16T12:58:05;20.95;;;10.07;;
22628;SDS011;11481;53.694;9.910;2023-04-16T13:00:36;16.13;;;8.90;;
22628;SDS011;11481;53.694;9.910;2023-04-16T13:03:03;19.52;;;9.60;;
22628;SDS011;11481;53.694;9.910;2023-04-16T13:05:30;18.35;;;9.65;;
22628;SDS011;11481;53.694;9.910;2023-04-16T13:07:56;23.00;;;8.68;;
22628;SDS011;11481;53.694;9.910;2023-04-16T13:10:23;24.67;;;10.82;;
22628;SDS011;11481;53.694;9.910;2023-04-16T13:12:50;30.80;;;11.55;;
22628;SDS011;11481;53.694;9.910;2023-04-16T13:15:16;23.00;;;9.55;;
22628;SDS011;11481;53.694;9.910;2023-04-16T13:17:44;20.73;;;9.73;;
22628;SDS011;11481;53.694;9.910;2023-04-16T13:20:11;19.30;;;9.45;;
22628;SDS011;11481;53.694;9.910;2023-04-16T13:22:37;18.20;;;9.15;;
22628;SDS011;11481;53.694;9.910;2023-04-16T13:25:04;19.13;;;9.80;;
22628;SDS011;11481;53.694;9.910;2023-04-16T13:27:31;17.17;;;8.90;;
22628;SDS011;11481;53.694;9.910;2023-04-16T13:29:58;21.55;;;9.13;;
22628;SDS011;11481;53.694;9.910;2023-04-16T13:32:25;20.08;;;10.18;;
22628;SDS011;11481;53.694;9.910;2023-04-16T13:34:52;21.05;;;9.32;;
22628;SDS011;11481;53.694;9.910;2023-04-16T13:37:18;20.20;;;9.38;;
22628;SDS011;11481;53.694;9.910;2023-04-16T13:39:45;27.25;;;9.75;;
22628;SDS011;11481;53.694;9.910;2023-04-16T13:42:12;18.90;;;9.65;;
22628;SDS011;11481;53.694;9.910;2023-04-16T13:44:38;21.73;;;9.82;;
22628;SDS011;11481;53.694;9.910;2023-04-16T13:47:05;20.90;;;10.32;;
22628;SDS011;11481;53.694;9.910;2023-04-16T13:49:32;21.33;;;8.98;;
22628;SDS011;11481;53.694;9.910;2023-04-16T13:52:01;18.83;;;9.30;;
22628;SDS011;11481;53.694;9.910;2023-04-16T13:54:28;19.00;;;8.73;;
22628;SDS011;11481;53.694;9.910;2023-04-16T13:56:58;18.23;;;9.32;;
22628;SDS011;11481;53.694;9.910;2023-04-16T13:59:25;16.92;;;9.05;;
22628;SDS011;11481;53.694;9.910;2023-04-16T14:01:51;23.05;;;8.52;;
22628;SDS011;11481;53.694;9.910;2023-04-16T14:04:18;18.83;;;8.73;;
22628;SDS011;11481;53.694;9.910;2023-04-16T14:06:48;19.83;;;9.48;;
22628;SDS011;11481;53.694;9.910;2023-04-16T14:09:15;16.75;;;8.70;;
22628;SDS011;11481;53.694;9.910;2023-04-16T14:11:41;21.50;;;9.05;;
22628;SDS011;11481;53.694;9.910;2023-04-16T14:14:08;17.90;;;8.40;;
22628;SDS011;11481;53.694;9.910;2023-04-16T14:16:35;27.77;;;9.32;;
22628;SDS011;11481;53.694;9.910;2023-04-16T14:19:02;18.40;;;8.98;;
22628;SDS011;11481;53.694;9.910;2023-04-16T14:21:29;19.02;;;9.30;;
22628;SDS011;11481;53.694;9.910;2023-04-16T14:23:56;17.33;;;8.77;;
22628;SDS011;11481;53.694;9.910;2023-04-16T14:26:24;16.35;;;8.88;;
22628;SDS011;11481;53.694;9.910;2023-04-16T14:28:51;19.23;;;9.52;;
22628;SDS011;11481;53.694;9.910;2023-04-16T14:31:17;18.42;;;8.93;;
22628;SDS011;11481;53.694;9.910;2023-04-16T14:33:45;17.88;;;8.65;;
22628;SDS011;11481;53.694;9.910;2023-04-16T14:36:12;18.08;;;8.93;;
22628;SDS011;11481;53.694;9.910;2023-04-16T14:38:38;16.92;;;8.93;;
22628;SDS011;11481;53.694;9.910;2023-04-16T14:41:05;25.42;;;10.10;;
22628;SDS011;11481;53.694;9.910;2023-04-16T14:43:32;18.17;;;8.95;;
22628;SDS011;11481;53.694;9.910;2023-04-16T14:45:59;17.42;;;9.55;;
22628;SDS011;11481;53.694;9.910;2023-04-16T14:48:25;16.77;;;8.68;;
22628;SDS011;11481;53.694;9.910;2023-04-16T14:50:52;19.42;;;9.52;;